createdAt,value
2022-08-03T00:02:48.991Z,6.33
2022-08-03T00:07:56.533Z,9.13
2022-08-03T00:13:01.553Z,5.07
2022-08-03T00:18:07.732Z,7.27
2022-08-03T00:23:15.501Z,4.17
2022-08-03T00:28:20.411Z,5.33
2022-08-03T00:33:25.592Z,5.53
2022-08-03T00:38:35.704Z,8.17
2022-08-03T00:43:40.648Z,5.73
2022-08-03T00:48:45.813Z,10.33
2022-08-03T00:53:53.837Z,5.27
2022-08-03T00:59:01.271Z,6.17
2022-08-03T01:04:06.473Z,4.47
2022-08-03T01:09:25.353Z,6.43
2022-08-03T01:14:37.428Z,3.93
2022-08-03T01:19:51.887Z,4.20
2022-08-03T01:25:05.957Z,5.80
2022-08-03T01:30:15.234Z,5.93
2022-08-03T01:35:28.128Z,4.37
2022-08-03T01:40:36.528Z,6.30
2022-08-03T01:45:45.090Z,6.60
2022-08-03T01:50:52.095Z,7.03
2022-08-03T01:55:58.561Z,5.83
2022-08-03T02:01:07.206Z,4.73
2022-08-03T02:06:59.038Z,6.97
2022-08-03T02:11:40.734Z,8.03
2022-08-03T02:16:51.979Z,7.37
2022-08-03T02:22:01.312Z,6.30
2022-08-03T02:27:10.965Z,8.43
2022-08-03T02:32:34.137Z,8.90
2022-08-03T02:37:49.716Z,5.77
2022-08-03T02:42:58.692Z,7.50
2022-08-03T02:48:08.861Z,8.30
2022-08-03T02:53:15.572Z,6.37
2022-08-03T02:58:22.649Z,10.47
2022-08-03T03:03:33.175Z,8.03
2022-08-03T03:08:50.605Z,6.30
2022-08-03T03:13:56.885Z,7.23
2022-08-03T03:19:05.542Z,5.27
2022-08-03T03:24:13.453Z,8.27
2022-08-03T03:29:19.014Z,6.90
2022-08-03T03:34:27.020Z,6.97
2022-08-03T03:39:33.812Z,7.40
2022-08-03T03:44:38.808Z,7.53
2022-08-03T03:49:46.724Z,7.60
2022-08-03T03:54:56.409Z,5.87
2022-08-03T04:00:06.246Z,7.20
2022-08-03T04:05:27.455Z,6.07
2022-08-03T04:10:49.253Z,6.60
2022-08-03T04:15:56.609Z,7.37
2022-08-03T04:21:06.975Z,6.30
2022-08-03T04:26:15.257Z,8.30
2022-08-03T04:31:23.502Z,7.97
2022-08-03T04:36:36.943Z,7.73
2022-08-03T04:42:04.384Z,9.90
2022-08-03T04:47:09.339Z,8.13
2022-08-03T04:52:17.544Z,6.87
2022-08-03T04:57:23.933Z,8.00
2022-08-03T05:02:28.890Z,11.80
2022-08-03T05:07:36.826Z,9.83
2022-08-03T05:12:41.932Z,13.80
2022-08-03T05:17:50.037Z,8.87
2022-08-03T05:22:57.569Z,7.03
2022-08-03T05:28:02.566Z,6.73
2022-08-03T05:33:09.289Z,5.33
2022-08-03T05:38:23.857Z,6.17
2022-08-03T05:43:34.790Z,6.83
2022-08-03T05:48:41.523Z,5.13
2022-08-03T05:53:50.020Z,3.60
2022-08-03T05:58:55.925Z,9.48
2022-08-03T06:04:02.496Z,6.03
2022-08-03T06:09:12.209Z,4.22
2022-08-03T06:14:17.601Z,4.28
2022-08-03T06:19:24.691Z,5.85
2022-08-03T06:24:33.170Z,2.50
2022-08-03T06:29:39.697Z,3.88
2022-08-03T06:34:44.913Z,4.30
2022-08-03T06:39:55.555Z,3.70
2022-08-03T06:45:00.709Z,3.08
2022-08-03T06:50:16.206Z,3.10
2022-08-03T06:55:26.401Z,3.78
2022-08-03T07:00:44.569Z,3.53
2022-08-03T07:05:51.443Z,4.05
2022-08-03T07:10:59.684Z,3.75
2022-08-03T07:16:08.917Z,3.05
2022-08-03T07:21:16.824Z,3.95
2022-08-03T07:26:24.902Z,3.97
2022-08-03T07:31:35.083Z,3.90
2022-08-03T07:36:40.105Z,4.15
2022-08-03T07:41:47.870Z,4.30
2022-08-03T07:46:53.621Z,2.80
2022-08-03T07:52:10.822Z,1.85
2022-08-03T07:57:18.389Z,2.00
2022-08-03T08:02:23.312Z,3.08
2022-08-03T08:07:28.396Z,3.20
2022-08-03T08:12:36.219Z,3.58
2022-08-03T08:17:48.068Z,5.85
2022-08-03T08:22:54.637Z,3.60
2022-08-03T08:28:30.620Z,5.63
2022-08-03T08:38:55.680Z,3.47
2022-08-03T08:44:03.731Z,2.30
2022-08-03T08:49:15.735Z,2.08
2022-08-03T08:54:57.162Z,4.47
2022-08-03T09:00:14.741Z,2.90
2022-08-03T09:05:36.256Z,5.15
2022-08-03T09:10:48.157Z,3.97
2022-08-03T09:16:13.049Z,3.45
2022-08-03T09:21:36.242Z,2.53
2022-08-03T09:26:41.536Z,3.10
2022-08-03T09:31:53.999Z,2.45
2022-08-03T09:37:00.005Z,2.95
2022-08-03T09:42:09.947Z,3.63
2022-08-03T09:47:19.039Z,6.10
2022-08-03T09:52:37.945Z,2.20
2022-08-03T09:57:46.830Z,2.28
2022-08-03T10:03:08.159Z,2.00
2022-08-03T10:08:18.239Z,3.60
2022-08-03T10:13:24.519Z,2.58
2022-08-03T10:18:32.204Z,2.70
2022-08-03T10:23:38.580Z,2.75
2022-08-03T10:28:49.493Z,3.88
2022-08-03T10:34:00.898Z,3.65
2022-08-03T10:39:16.487Z,4.57
2022-08-03T10:44:23.234Z,2.60
2022-08-03T10:49:34.617Z,3.25
2022-08-03T10:55:07.859Z,2.95
2022-08-03T11:00:17.544Z,3.17
2022-08-03T11:05:33.188Z,2.85
2022-08-03T11:10:38.655Z,2.33
2022-08-03T11:15:46.742Z,2.42
2022-08-03T11:20:56.115Z,4.78
2022-08-03T11:26:19.712Z,4.20
2022-08-03T11:31:54.540Z,2.33
2022-08-03T11:37:33.223Z,2.90
2022-08-03T11:42:48.407Z,5.30
2022-08-03T11:47:58.686Z,2.42
2022-08-03T11:53:06.773Z,3.08
2022-08-03T11:59:18.813Z,2.30
2022-08-03T12:03:38.288Z,1.60
2022-08-03T12:14:50.375Z,1.65
2022-08-03T12:19:45.767Z,4.38
2022-08-03T12:24:53.884Z,3.67
2022-08-03T12:30:01.879Z,3.10
2022-08-03T12:35:07.732Z,3.28
2022-08-03T12:40:20.585Z,3.72
2022-08-03T12:45:28.451Z,1.80
2022-08-03T12:50:35.686Z,1.92
2022-08-03T12:56:05.123Z,3.08
2022-08-03T13:01:13.672Z,2.22
2022-08-03T13:06:20.580Z,2.60
2022-08-03T13:11:55.770Z,6.13
2022-08-03T13:16:55.420Z,2.17
2022-08-03T13:22:04.720Z,1.80
2022-08-03T13:28:03.317Z,5.75
2022-08-03T13:32:37.970Z,2.85
2022-08-03T13:37:42.959Z,2.63
2022-08-03T13:42:56.421Z,5.13
2022-08-03T13:48:01.451Z,3.95
2022-08-03T13:53:06.476Z,2.20
2022-08-03T13:58:14.224Z,2.55
2022-08-03T14:03:20.471Z,3.80
2022-08-03T14:08:25.347Z,3.67
2022-08-03T14:13:32.892Z,2.67
2022-08-03T14:18:37.848Z,2.28
2022-08-03T14:23:46.494Z,4.45
2022-08-03T14:28:54.483Z,3.63
2022-08-03T14:34:02.150Z,2.22
2022-08-03T14:39:07.528Z,1.65
2022-08-03T14:44:15.164Z,3.85
2022-08-03T14:50:38.284Z,1.80
2022-08-03T14:54:44.956Z,3.38
2022-08-03T14:59:55.810Z,2.72
2022-08-03T15:05:02.346Z,1.20
2022-08-03T15:10:08.165Z,1.88
2022-08-03T15:15:15.947Z,5.28
2022-08-03T15:20:36.446Z,6.18
2022-08-03T15:26:32.048Z,2.22
2022-08-03T15:31:18.984Z,5.60
2022-08-03T15:36:24.544Z,2.25
2022-08-03T15:41:29.586Z,2.72
2022-08-03T15:46:37.027Z,1.40
2022-08-03T15:51:42.009Z,7.03
2022-08-03T15:56:46.897Z,2.53
2022-08-03T16:01:56.784Z,2.17
2022-08-03T16:07:01.965Z,3.25
2022-08-03T16:12:15.665Z,5.40
2022-08-03T16:17:24.700Z,2.38
2022-08-03T16:22:30.127Z,1.98
2022-08-03T16:28:07.201Z,4.78
2022-08-03T16:33:17.312Z,2.97
2022-08-03T16:38:23.541Z,1.60
2022-08-03T16:43:28.836Z,3.92
2022-08-03T16:48:36.947Z,4.38
2022-08-03T16:54:05.377Z,2.40
2022-08-03T16:59:07.486Z,4.10
2022-08-03T17:04:15.569Z,4.25
2022-08-03T17:09:21.828Z,2.53
2022-08-03T17:14:28.269Z,1.95
2022-08-03T17:19:42.386Z,2.30
2022-08-03T17:24:54.746Z,3.10
2022-08-03T17:30:03.950Z,3.17
2022-08-03T17:35:14.794Z,2.33
2022-08-03T17:40:20.245Z,4.95
2022-08-03T17:45:52.165Z,5.82
2022-08-03T17:51:02.487Z,4.68
2022-08-03T17:56:44.970Z,4.57
2022-08-03T18:02:09.522Z,3.58
2022-08-03T18:07:40.911Z,5.07
2022-08-03T18:12:51.805Z,4.65
2022-08-03T18:18:02.606Z,3.40
2022-08-03T18:23:36.212Z,5.80
2022-08-03T18:28:40.912Z,4.60
2022-08-03T18:34:19.922Z,2.80
2022-08-03T18:39:17.360Z,5.80
2022-08-03T18:44:46.563Z,4.13
2022-08-03T18:50:00.183Z,5.47
2022-08-03T18:55:20.228Z,9.52
2022-08-03T19:00:42.319Z,7.35
2022-08-03T19:06:02.616Z,6.25
2022-08-03T19:11:28.084Z,4.28
2022-08-03T19:16:38.733Z,11.00
2022-08-03T19:21:44.835Z,9.77
2022-08-03T19:26:55.972Z,9.02
2022-08-03T19:32:04.103Z,7.05
2022-08-03T19:37:15.422Z,9.07
2022-08-03T19:42:32.001Z,5.60
2022-08-03T19:47:42.815Z,6.47
2022-08-03T19:52:50.557Z,6.93
2022-08-03T19:58:01.165Z,7.70
2022-08-03T20:03:22.121Z,5.20
2022-08-03T20:08:29.948Z,8.80
2022-08-03T20:13:39.165Z,8.95
2022-08-03T20:18:44.275Z,7.00
2022-08-03T20:24:02.847Z,9.70
2022-08-03T20:29:26.003Z,7.45
2022-08-03T20:34:51.014Z,11.05
2022-08-03T20:39:58.361Z,6.75
2022-08-03T20:45:15.162Z,7.50
2022-08-03T20:50:32.559Z,6.93
2022-08-03T20:55:47.877Z,3.40
2022-08-03T21:01:06.322Z,8.02
2022-08-03T21:06:14.969Z,7.07
2022-08-03T21:11:25.050Z,8.32
2022-08-03T21:16:36.919Z,4.25
2022-08-03T21:21:42.907Z,5.57
2022-08-03T21:26:51.401Z,6.75
2022-08-03T21:32:02.128Z,6.18
2022-08-03T21:37:07.324Z,9.10
2022-08-03T21:42:12.234Z,8.65
2022-08-03T21:47:21.411Z,5.97
2022-08-03T21:52:27.229Z,5.22
2022-08-03T21:57:34.092Z,5.43
2022-08-03T22:02:53.026Z,5.40
2022-08-03T22:08:00.705Z,10.52
2022-08-03T22:13:05.649Z,5.38
2022-08-03T22:18:13.846Z,6.03
2022-08-03T22:23:21.392Z,6.60
2022-08-03T22:28:31.809Z,6.93
2022-08-03T22:33:40.820Z,8.97
2022-08-03T22:38:46.395Z,9.27
2022-08-03T22:43:52.311Z,7.93
2022-08-03T22:49:00.725Z,6.40
2022-08-03T22:54:05.680Z,9.77
2022-08-03T22:59:39.089Z,14.67
2022-08-03T23:04:42.178Z,8.63
2022-08-03T23:09:50.072Z,10.30
2022-08-03T23:14:58.231Z,6.73
2022-08-03T23:20:09.074Z,7.77
2022-08-03T23:25:14.642Z,6.70
2022-08-03T23:30:19.858Z,8.33
2022-08-03T23:36:28.568Z,7.00
2022-08-03T23:41:06.933Z,6.60
2022-08-03T23:46:13.477Z,7.10
2022-08-03T23:51:36.019Z,6.00
2022-08-03T23:56:52.228Z,9.13
